createdAt,value
2018-03-11T00:00:50.985Z,0
2018-03-11T00:01:50.964Z,0
2018-03-11T00:02:50.959Z,0
2018-03-11T00:03:51.211Z,0
2018-03-11T00:04:51.190Z,0
2018-03-11T00:05:51.448Z,0
2018-03-11T00:06:51.163Z,0
2018-03-11T00:07:50.888Z,0
2018-03-11T00:08:50.337Z,0
2018-03-11T00:09:50.850Z,0
2018-03-11T00:10:50.575Z,0
2018-03-11T00:11:51.092Z,0
2018-03-11T00:12:50.543Z,0
2018-03-11T00:13:51.063Z,0
2018-03-11T00:14:50.917Z,0
2018-03-11T00:15:50.761Z,0
2018-03-11T00:16:50.492Z,0
2018-03-11T00:17:50.996Z,0
2018-03-11T00:18:50.452Z,0
2018-03-11T00:19:50.982Z,0
2018-03-11T00:20:50.965Z,0
2018-03-11T00:21:50.943Z,0
2018-03-11T00:22:50.661Z,0
2018-03-11T00:23:50.920Z,0
2018-03-11T00:24:50.629Z,0
2018-03-11T00:25:50.624Z,0
2018-03-11T00:26:50.342Z,0
2018-03-11T00:27:50.596Z,0
2018-03-11T00:28:50.572Z,0
2018-03-11T00:29:50.570Z,0
2018-03-11T00:30:50.805Z,0
2018-03-11T00:31:50.532Z,0
2018-03-11T00:32:50.526Z,0
2018-03-11T00:33:51.029Z,0
2018-03-11T00:34:50.217Z,0
2018-03-11T00:35:50.466Z,0
2018-03-11T00:36:50.720Z,0
2018-03-11T00:37:50.712Z,0
2018-03-11T00:38:50.425Z,0
2018-03-11T00:39:50.409Z,0
2018-03-11T00:40:50.671Z,0
2018-03-11T00:41:50.914Z,0
2018-03-11T00:42:50.369Z,0
2018-03-11T00:43:50.624Z,0
2018-03-11T00:44:50.343Z,0
2018-03-11T00:45:49.800Z,0
2018-03-11T00:46:50.310Z,0
2018-03-11T00:47:50.294Z,0
2018-03-11T00:48:50.547Z,0
2018-03-11T00:49:50.533Z,0
2018-03-11T00:50:50.519Z,0
2018-03-11T00:51:50.776Z,0
2018-03-11T00:52:49.693Z,0
2018-03-11T00:53:49.957Z,0
2018-03-11T00:54:50.464Z,0
2018-03-11T00:55:50.181Z,0
2018-03-11T00:56:49.634Z,0
2018-03-11T00:57:49.881Z,0
2018-03-11T00:58:50.132Z,0
2018-03-11T00:59:50.162Z,0
2018-03-11T01:00:50.388Z,0
2018-03-11T01:01:50.086Z,0
2018-03-11T01:02:49.822Z,0
2018-03-11T01:03:50.064Z,0
2018-03-11T01:04:50.053Z,0
2018-03-11T01:05:49.768Z,0
2018-03-11T01:06:50.014Z,0
2018-03-11T01:07:50.005Z,0
2018-03-11T01:08:49.730Z,0
2018-03-11T01:09:49.713Z,0
2018-03-11T01:10:49.693Z,0
2018-03-11T01:11:49.677Z,0
2018-03-11T01:12:49.670Z,0
2018-03-11T01:13:49.922Z,0
2018-03-11T01:14:49.919Z,0
2018-03-11T01:15:49.894Z,0
2018-03-11T01:16:49.604Z,0
2018-03-11T01:17:50.387Z,0
2018-03-11T01:18:49.846Z,0
2018-03-11T01:19:50.098Z,0
2018-03-11T01:20:49.811Z,0
2018-03-11T01:21:50.333Z,0
2018-03-11T01:22:49.523Z,0
2018-03-11T01:23:50.042Z,0
2018-03-11T01:24:49.751Z,0
2018-03-11T01:25:49.472Z,0
2018-03-11T01:26:49.939Z,0
2018-03-11T01:27:49.709Z,0
2018-03-11T01:28:50.277Z,0
2018-03-11T01:29:49.424Z,0
2018-03-11T01:30:49.668Z,0
2018-03-11T01:31:49.662Z,0
2018-03-11T01:32:49.636Z,0
2018-03-11T01:33:49.675Z,0
2018-03-11T01:34:49.879Z,0
2018-03-11T01:35:49.860Z,0
2018-03-11T01:36:49.842Z,0
2018-03-11T01:37:50.093Z,0
2018-03-11T01:38:49.291Z,0
2018-03-11T01:39:49.806Z,0
2018-03-11T01:40:49.460Z,0
2018-03-11T01:41:48.975Z,0
2018-03-11T01:42:49.756Z,0
2018-03-11T01:43:49.269Z,0
2018-03-11T01:44:48.932Z,0
2018-03-11T01:45:49.445Z,0
2018-03-11T01:46:49.442Z,0
2018-03-11T01:47:49.155Z,0
2018-03-11T01:48:49.402Z,0
2018-03-11T01:49:49.391Z,0
2018-03-11T01:50:49.643Z,0
2018-03-11T01:51:49.356Z,0
2018-03-11T01:52:49.344Z,0
2018-03-11T01:53:49.328Z,0
2018-03-11T01:54:49.060Z,0
2018-03-11T01:55:49.035Z,0
2018-03-11T01:56:49.563Z,0
2018-03-11T01:57:49.280Z,0
2018-03-11T01:58:49.530Z,0
2018-03-11T01:59:48.986Z,0
2018-03-11T02:00:49.501Z,0
2018-03-11T02:01:49.214Z,0
2018-03-11T02:02:49.467Z,0
2018-03-11T02:03:49.450Z,0
2018-03-11T02:04:48.643Z,0
2018-03-11T02:05:48.891Z,0
2018-03-11T02:06:49.226Z,0
2018-03-11T02:07:49.660Z,0
2018-03-11T02:08:49.118Z,0
2018-03-11T02:09:49.101Z,0
2018-03-11T02:10:49.083Z,0
2018-03-11T02:11:49.075Z,0
2018-03-11T02:12:49.321Z,0
2018-03-11T02:13:49.570Z,0
2018-03-11T02:14:49.615Z,0
2018-03-11T02:15:49.277Z,0
2018-03-11T02:16:48.732Z,0
2018-03-11T02:17:49.521Z,0
2018-03-11T02:18:48.968Z,0
2018-03-11T02:19:48.959Z,0
2018-03-11T02:20:48.942Z,0
2018-03-11T02:21:48.927Z,0
2018-03-11T02:22:48.921Z,0
2018-03-11T02:23:49.173Z,0
2018-03-11T02:24:48.616Z,0
2018-03-11T02:25:48.875Z,0
2018-03-11T02:26:48.859Z,0
2018-03-11T02:27:48.302Z,0
2018-03-11T02:28:48.294Z,0
2018-03-11T02:29:49.083Z,0
2018-03-11T02:30:48.799Z,0
2018-03-11T02:31:49.049Z,0
2018-03-11T02:32:49.304Z,0
2018-03-11T02:33:48.213Z,0
2018-03-11T02:34:49.014Z,0
2018-03-11T02:35:48.740Z,0
2018-03-11T02:36:48.970Z,0
2018-03-11T02:37:48.699Z,0
2018-03-11T02:38:48.407Z,0
2018-03-11T02:39:49.202Z,0
2018-03-11T02:40:48.910Z,0
2018-03-11T02:41:48.637Z,0
2018-03-11T02:42:48.891Z,0
2018-03-11T02:43:48.604Z,0
2018-03-11T02:44:48.312Z,0
2018-03-11T02:45:48.303Z,0
2018-03-11T02:46:48.820Z,0
2018-03-11T02:47:48.543Z,0
2018-03-11T02:48:48.526Z,0
2018-03-11T02:49:48.511Z,0
2018-03-11T02:50:48.228Z,0
2018-03-11T02:51:48.481Z,0
2018-03-11T02:52:48.735Z,0
2018-03-11T02:53:48.174Z,0
2018-03-11T02:54:48.707Z,0
2018-03-11T02:55:48.682Z,0
2018-03-11T02:56:48.399Z,0
2018-03-11T02:57:48.381Z,0
2018-03-11T02:58:48.645Z,0
2018-03-11T02:59:48.165Z,0
2018-03-11T03:00:48.869Z,0
2018-03-11T03:01:48.324Z,0
2018-03-11T03:02:48.575Z,0
2018-03-11T03:03:48.043Z,0
2018-03-11T03:04:47.742Z,0
2018-03-11T03:05:48.849Z,0
2018-03-11T03:06:47.983Z,0
2018-03-11T03:07:48.497Z,0
2018-03-11T03:08:48.223Z,0
2018-03-11T03:09:47.666Z,0
2018-03-11T03:10:47.920Z,0
2018-03-11T03:11:48.702Z,0
2018-03-11T03:12:47.886Z,0
2018-03-11T03:13:48.137Z,0
2018-03-11T03:14:48.654Z,0
2018-03-11T03:15:47.836Z,0
2018-03-11T03:16:48.086Z,0
2018-03-11T03:17:48.335Z,0
2018-03-11T03:18:48.324Z,0
2018-03-11T03:19:48.037Z,0
2018-03-11T03:20:48.027Z,0
2018-03-11T03:21:48.275Z,0
2018-03-11T03:22:48.271Z,0
2018-03-11T03:23:47.974Z,0
2018-03-11T03:24:47.959Z,0
2018-03-11T03:25:47.958Z,0
2018-03-11T03:26:47.661Z,0
2018-03-11T03:27:48.178Z,0
2018-03-11T03:28:48.166Z,0
2018-03-11T03:29:48.417Z,0
2018-03-11T03:30:48.325Z,0
2018-03-11T03:31:48.130Z,0
2018-03-11T03:32:47.570Z,0
2018-03-11T03:33:48.085Z,0
2018-03-11T03:34:47.593Z,0
2018-03-11T03:35:48.057Z,0
2018-03-11T03:36:47.777Z,0
2018-03-11T03:37:47.756Z,0
2018-03-11T03:38:47.750Z,0
2018-03-11T03:39:47.775Z,0
2018-03-11T03:40:47.652Z,0
2018-03-11T03:41:47.426Z,0
2018-03-11T03:42:47.943Z,0
2018-03-11T03:43:47.133Z,0
2018-03-11T03:44:47.642Z,0
2018-03-11T03:45:47.630Z,0
2018-03-11T03:46:47.882Z,0
2018-03-11T03:47:47.595Z,0
2018-03-11T03:48:48.120Z,0
2018-03-11T03:49:47.300Z,0
2018-03-11T03:50:47.552Z,0
2018-03-11T03:51:47.798Z,0
2018-03-11T03:52:48.050Z,0
2018-03-11T03:53:47.520Z,0
2018-03-11T03:54:47.754Z,0
2018-03-11T03:55:47.750Z,0
2018-03-11T03:56:46.919Z,0
2018-03-11T03:57:47.704Z,0
2018-03-11T03:58:47.154Z,0
2018-03-11T03:59:47.950Z,0
2018-03-11T04:00:47.650Z,0
2018-03-11T04:01:47.370Z,0
2018-03-11T04:02:47.090Z,0
2018-03-11T04:03:47.338Z,0
2018-03-11T04:04:47.324Z,0
2018-03-11T04:05:47.576Z,0
2018-03-11T04:06:47.550Z,0
2018-03-11T04:07:47.276Z,0
2018-03-11T04:08:47.518Z,0
2018-03-11T04:09:47.502Z,0
2018-03-11T04:10:46.962Z,0
2018-03-11T04:11:47.478Z,0
2018-03-11T04:12:47.199Z,0
2018-03-11T04:13:46.920Z,0
2018-03-11T04:14:46.900Z,0
2018-03-11T04:15:47.140Z,0
2018-03-11T04:16:47.133Z,0
2018-03-11T04:17:47.109Z,0
2018-03-11T04:18:47.365Z,0
2018-03-11T04:19:46.809Z,0
2018-03-11T04:20:47.330Z,0
2018-03-11T04:21:47.579Z,0
2018-03-11T04:22:46.770Z,0
2018-03-11T04:23:46.744Z,0
2018-03-11T04:24:46.996Z,0
2018-03-11T04:25:47.248Z,0
2018-03-11T04:26:47.224Z,0
2018-03-11T04:27:46.950Z,0
2018-03-11T04:28:47.462Z,0
2018-03-11T04:29:46.922Z,0
2018-03-11T04:30:46.903Z,0
2018-03-11T04:31:47.149Z,0
2018-03-11T04:32:46.597Z,0
2018-03-11T04:33:47.118Z,0
2018-03-11T04:34:46.565Z,0
2018-03-11T04:35:47.082Z,0
2018-03-11T04:36:47.064Z,0
2018-03-11T04:37:46.512Z,0
2018-03-11T04:38:47.029Z,0
2018-03-11T04:39:47.274Z,0
2018-03-11T04:40:46.516Z,0
2018-03-11T04:41:46.983Z,0
2018-03-11T04:42:46.432Z,0
2018-03-11T04:43:46.686Z,0
2018-03-11T04:44:47.198Z,0
2018-03-11T04:45:46.652Z,0
2018-03-11T04:46:46.630Z,0
2018-03-11T04:47:47.145Z,0
2018-03-11T04:48:46.598Z,0
2018-03-11T04:49:47.110Z,0
2018-03-11T04:50:47.111Z,0
2018-03-11T04:51:46.545Z,0
2018-03-11T04:52:46.270Z,0
2018-03-11T04:53:46.783Z,0
2018-03-11T04:54:46.234Z,0
2018-03-11T04:55:46.217Z,0
2018-03-11T04:56:46.739Z,0
2018-03-11T04:57:46.184Z,0
2018-03-11T04:58:46.694Z,0
2018-03-11T04:59:46.681Z,0
2018-03-11T05:00:46.403Z,0
2018-03-11T05:01:46.640Z,0
2018-03-11T05:02:46.105Z,0
2018-03-11T05:03:46.343Z,0
2018-03-11T05:04:46.071Z,0
2018-03-11T05:05:46.048Z,0
2018-03-11T05:06:46.575Z,0
2018-03-11T05:07:46.282Z,0
2018-03-11T05:08:45.733Z,0
2018-03-11T05:09:46.525Z,0
2018-03-11T05:10:45.704Z,0
2018-03-11T05:11:45.946Z,0
2018-03-11T05:12:46.192Z,0
2018-03-11T05:13:46.185Z,0
2018-03-11T05:14:46.442Z,0
2018-03-11T05:15:46.151Z,0
2018-03-11T05:16:46.136Z,0
2018-03-11T05:17:45.848Z,0
2018-03-11T05:18:46.626Z,0
2018-03-11T05:19:46.348Z,0
2018-03-11T05:20:46.070Z,0
2018-03-11T05:21:46.046Z,0
2018-03-11T05:22:46.034Z,0
2018-03-11T05:23:45.478Z,0
2018-03-11T05:24:45.993Z,0
2018-03-11T05:25:46.272Z,0
2018-03-11T05:26:46.289Z,0
2018-03-11T05:27:46.224Z,0
2018-03-11T05:28:45.678Z,0
2018-03-11T05:29:45.910Z,0
2018-03-11T05:30:46.170Z,0
2018-03-11T05:31:46.147Z,0
2018-03-11T05:32:45.863Z,0
2018-03-11T05:33:45.840Z,0
2018-03-11T05:34:46.093Z,0
2018-03-11T05:35:45.810Z,0
2018-03-11T05:36:46.109Z,0
2018-03-11T05:37:45.782Z,0
2018-03-11T05:38:46.032Z,0
2018-03-11T05:39:45.744Z,0
2018-03-11T05:40:45.664Z,0
2018-03-11T05:41:45.973Z,0
2018-03-11T05:42:46.005Z,0
2018-03-11T05:43:46.203Z,0
2018-03-11T05:44:45.657Z,0
2018-03-11T05:45:45.903Z,0
2018-03-11T05:46:45.894Z,0
2018-03-11T05:47:45.334Z,0
2018-03-11T05:48:45.588Z,0
2018-03-11T05:49:45.308Z,0
2018-03-11T05:50:45.290Z,0
2018-03-11T05:51:45.536Z,0
2018-03-11T05:52:45.787Z,0
2018-03-11T05:53:45.505Z,5
2018-03-11T05:54:46.029Z,5
2018-03-11T05:55:45.735Z,5
2018-03-11T05:56:45.759Z,5
2018-03-11T05:57:45.965Z,5
2018-03-11T05:58:45.150Z,5
2018-03-11T05:59:45.399Z,5
2018-03-11T06:00:45.387Z,5
2018-03-11T06:01:45.361Z,5
2018-03-11T06:02:45.615Z,5
2018-03-11T06:03:45.067Z,10
2018-03-11T06:04:45.847Z,10
2018-03-11T06:05:44.771Z,10
2018-03-11T06:06:45.281Z,10
2018-03-11T06:07:45.791Z,10
2018-03-11T06:08:45.243Z,10
2018-03-11T06:09:45.490Z,10
2018-03-11T06:10:45.547Z,15
2018-03-11T06:11:45.190Z,15
2018-03-11T06:12:45.708Z,15
2018-03-11T06:13:45.427Z,15
2018-03-11T06:14:45.415Z,15
2018-03-11T06:15:45.662Z,20
2018-03-11T06:16:45.386Z,20
2018-03-11T06:17:45.359Z,20
2018-03-11T06:18:44.809Z,20
2018-03-11T06:19:45.321Z,25
2018-03-11T06:20:45.041Z,25
2018-03-11T06:21:45.022Z,25
2018-03-11T06:22:45.275Z,25
2018-03-11T06:23:45.263Z,25
2018-03-11T06:24:45.493Z,30
2018-03-11T06:25:45.220Z,30
2018-03-11T06:26:44.939Z,30
2018-03-11T06:27:44.920Z,35
2018-03-11T06:28:45.436Z,35
2018-03-11T06:29:44.880Z,35
2018-03-11T06:30:44.867Z,35
2018-03-11T06:31:45.115Z,35
2018-03-11T06:32:45.094Z,30
2018-03-11T06:33:44.814Z,30
2018-03-11T06:34:45.063Z,25
2018-03-11T06:35:45.046Z,30
2018-03-11T06:36:44.502Z,30
2018-03-11T06:37:44.760Z,35
2018-03-11T06:38:45.009Z,40
2018-03-11T06:39:44.718Z,45
2018-03-11T06:40:44.969Z,50
2018-03-11T06:41:44.688Z,50
2018-03-11T06:42:45.192Z,50
2018-03-11T06:43:44.650Z,50
2018-03-11T06:44:44.895Z,50
2018-03-11T06:45:45.148Z,50
2018-03-11T06:46:44.873Z,50
2018-03-11T06:47:44.323Z,55
2018-03-11T06:48:44.304Z,55
2018-03-11T06:49:44.293Z,60
2018-03-11T06:50:44.800Z,60
2018-03-11T06:51:45.048Z,65
2018-03-11T06:52:45.032Z,65
2018-03-11T06:53:44.507Z,65
2018-03-11T06:54:44.467Z,65
2018-03-11T06:55:44.198Z,65
2018-03-11T06:56:44.432Z,70
2018-03-11T06:57:44.425Z,70
2018-03-11T06:58:44.943Z,70
2018-03-11T06:59:44.120Z,75
2018-03-11T07:00:44.371Z,75
2018-03-11T07:01:44.352Z,75
2018-03-11T07:02:44.890Z,75
2018-03-11T07:03:44.362Z,75
2018-03-11T07:04:44.571Z,75
2018-03-11T07:05:44.553Z,75
2018-03-11T07:06:44.012Z,80
2018-03-11T07:07:43.996Z,80
2018-03-11T07:08:43.706Z,80
2018-03-11T07:09:44.488Z,85
2018-03-11T07:10:43.936Z,85
2018-03-11T07:11:44.192Z,90
2018-03-11T07:12:44.708Z,90
2018-03-11T07:13:43.900Z,95
2018-03-11T07:14:44.729Z,90
2018-03-11T07:15:44.402Z,90
2018-03-11T07:16:44.116Z,90
2018-03-11T07:17:44.364Z,90
2018-03-11T07:18:44.345Z,90
2018-03-11T07:19:44.323Z,85
2018-03-11T07:20:44.042Z,85
2018-03-11T07:21:44.031Z,85
2018-03-11T07:22:44.277Z,85
2018-03-11T07:23:44.273Z,85
2018-03-11T07:24:43.721Z,90
2018-03-11T07:25:43.969Z,90
2018-03-11T07:26:43.691Z,90
2018-03-11T07:27:43.946Z,90
2018-03-11T07:28:44.188Z,90
2018-03-11T07:29:43.638Z,90
2018-03-11T07:30:43.627Z,90
2018-03-11T07:31:44.407Z,85
2018-03-11T07:32:43.862Z,85
2018-03-11T07:33:44.118Z,75
2018-03-11T07:34:43.822Z,65
2018-03-11T07:35:43.285Z,65
2018-03-11T07:36:44.072Z,80
2018-03-11T07:37:44.057Z,100
2018-03-11T07:38:43.762Z,105
2018-03-11T07:39:43.760Z,110
2018-03-11T07:40:43.940Z,110
2018-03-11T07:41:43.726Z,105
2018-03-11T07:42:43.707Z,105
2018-03-11T07:43:43.689Z,95
2018-03-11T07:44:43.672Z,90
2018-03-11T07:45:43.944Z,90
2018-03-11T07:46:44.170Z,95
2018-03-11T07:47:43.627Z,100
2018-03-11T07:48:43.621Z,105
2018-03-11T07:49:43.331Z,110
2018-03-11T07:50:43.319Z,110
2018-03-11T07:51:43.300Z,110
2018-03-11T07:52:43.813Z,110
2018-03-11T07:53:43.535Z,115
2018-03-11T07:54:43.942Z,120
2018-03-11T07:55:43.502Z,125
2018-03-11T07:56:43.488Z,130
2018-03-11T07:57:43.203Z,130
2018-03-11T07:58:43.982Z,135
2018-03-11T07:59:43.717Z,140
2018-03-11T08:00:43.434Z,140
2018-03-11T08:01:43.694Z,140
2018-03-11T08:02:42.864Z,145
2018-03-11T08:03:43.646Z,150
2018-03-11T08:04:43.689Z,150
2018-03-11T08:05:43.352Z,150
2018-03-11T08:06:43.642Z,150
2018-03-11T08:07:43.065Z,155
2018-03-11T08:08:43.042Z,165
2018-03-11T08:09:42.759Z,155
2018-03-11T08:10:43.274Z,150
2018-03-11T08:11:43.536Z,150
2018-03-11T08:12:43.245Z,145
2018-03-11T08:13:43.497Z,150
2018-03-11T08:14:43.318Z,155
2018-03-11T08:15:43.200Z,155
2018-03-11T08:16:42.960Z,155
2018-03-11T08:17:43.177Z,140
2018-03-11T08:18:42.641Z,130
2018-03-11T08:19:43.889Z,115
2018-03-11T08:20:43.420Z,110
2018-03-11T08:21:43.113Z,105
2018-03-11T08:22:42.835Z,110
2018-03-11T08:23:42.823Z,110
2018-03-11T08:24:43.069Z,110
2018-03-11T08:25:42.799Z,110
2018-03-11T08:26:43.316Z,110
2018-03-11T08:27:43.568Z,105
2018-03-11T08:28:43.552Z,100
2018-03-11T08:29:43.533Z,100
2018-03-11T08:30:42.725Z,85
2018-03-11T08:31:43.504Z,70
2018-03-11T08:32:42.685Z,65
2018-03-11T08:33:43.477Z,70
2018-03-11T08:34:42.940Z,65
2018-03-11T08:35:43.184Z,70
2018-03-11T08:36:42.639Z,75
2018-03-11T08:37:42.677Z,75
2018-03-11T08:38:42.877Z,75
2018-03-11T08:39:43.118Z,75
2018-03-11T08:40:43.109Z,75
2018-03-11T08:41:43.366Z,75
2018-03-11T08:42:42.813Z,70
2018-03-11T08:43:42.800Z,75
2018-03-11T08:44:42.513Z,85
2018-03-11T08:45:42.762Z,90
2018-03-11T08:46:42.502Z,95
2018-03-11T08:47:42.743Z,80
2018-03-11T08:48:42.989Z,75
2018-03-11T08:49:43.238Z,65
2018-03-11T08:50:42.716Z,60
2018-03-11T08:51:42.693Z,70
2018-03-11T08:52:42.177Z,85
2018-03-11T08:53:42.391Z,80
2018-03-11T08:54:42.749Z,75
2018-03-11T08:55:42.883Z,65
2018-03-11T08:56:42.922Z,60
2018-03-11T08:57:42.333Z,65
2018-03-11T08:58:42.588Z,60
2018-03-11T08:59:42.567Z,60
2018-03-11T09:00:42.549Z,65
2018-03-11T09:01:42.804Z,65
2018-03-11T09:02:42.791Z,65
2018-03-11T09:03:42.781Z,70
2018-03-11T09:04:42.758Z,80
2018-03-11T09:05:42.482Z,95
2018-03-11T09:06:42.456Z,140
2018-03-11T09:07:42.454Z,245
2018-03-11T09:08:42.428Z,280
2018-03-11T09:09:42.696Z,550
2018-03-11T09:10:42.869Z,495
2018-03-11T09:11:42.132Z,380
2018-03-11T09:12:42.651Z,315
2018-03-11T09:13:41.834Z,340
2018-03-11T09:14:42.344Z,260
2018-03-11T09:15:42.351Z,235
2018-03-11T09:16:42.322Z,235
2018-03-11T09:17:42.044Z,210
2018-03-11T09:18:42.566Z,235
2018-03-11T09:19:42.278Z,245
2018-03-11T09:20:42.265Z,220
2018-03-11T09:21:42.330Z,190
2018-03-11T09:22:42.510Z,155
2018-03-11T09:23:42.760Z,130
2018-03-11T09:24:42.754Z,125
2018-03-11T09:25:42.215Z,165
2018-03-11T09:26:42.244Z,175
2018-03-11T09:27:42.178Z,145
2018-03-11T09:28:42.748Z,125
2018-03-11T09:29:42.690Z,125
2018-03-11T09:30:42.145Z,115
2018-03-11T09:31:41.867Z,115
2018-03-11T09:32:42.110Z,125
2018-03-11T09:33:42.101Z,125
2018-03-11T09:34:42.355Z,115
2018-03-11T09:35:42.086Z,105
2018-03-11T09:36:42.060Z,75
2018-03-11T09:37:42.312Z,70
2018-03-11T09:38:42.303Z,65
2018-03-11T09:39:42.024Z,55
2018-03-11T09:40:42.004Z,60
2018-03-11T09:41:42.269Z,65
2018-03-11T09:42:41.988Z,75
2018-03-11T09:43:41.710Z,70
2018-03-11T09:44:41.954Z,75
2018-03-11T09:45:41.677Z,75
2018-03-11T09:46:42.201Z,75
2018-03-11T09:47:41.658Z,80
2018-03-11T09:48:42.196Z,80
2018-03-11T09:49:41.894Z,80
2018-03-11T09:50:42.141Z,95
2018-03-11T09:51:41.861Z,110
2018-03-11T09:52:41.664Z,110
2018-03-11T09:53:42.377Z,100
2018-03-11T09:54:42.098Z,100
2018-03-11T09:55:41.825Z,110
2018-03-11T09:56:42.061Z,115
2018-03-11T09:57:42.043Z,115
2018-03-11T09:58:41.555Z,125
2018-03-11T09:59:41.753Z,145
2018-03-11T10:00:41.738Z,210
2018-03-11T10:01:41.478Z,285
2018-03-11T10:02:41.718Z,280
2018-03-11T10:03:41.711Z,235
2018-03-11T10:04:41.970Z,220
2018-03-11T10:05:41.681Z,180
2018-03-11T10:06:41.944Z,185
2018-03-11T10:07:42.199Z,215
2018-03-11T10:08:41.638Z,280
2018-03-11T10:09:41.630Z,305
2018-03-11T10:10:42.033Z,310
2018-03-11T10:11:42.137Z,280
2018-03-11T10:12:42.117Z,245
2018-03-11T10:13:41.936Z,255
2018-03-11T10:14:42.100Z,265
2018-03-11T10:15:42.136Z,255
2018-03-11T10:16:41.815Z,250
2018-03-11T10:17:41.543Z,250
2018-03-11T10:18:41.546Z,225
2018-03-11T10:19:41.514Z,205
2018-03-11T10:20:41.235Z,210
2018-03-11T10:21:41.257Z,205
2018-03-11T10:22:41.740Z,195
2018-03-11T10:23:41.462Z,195
2018-03-11T10:24:41.734Z,180
2018-03-11T10:25:41.438Z,160
2018-03-11T10:26:41.444Z,150
2018-03-11T10:27:41.414Z,140
2018-03-11T10:28:41.400Z,125
2018-03-11T10:29:40.858Z,150
2018-03-11T10:30:41.114Z,170
2018-03-11T10:31:41.367Z,145
2018-03-11T10:32:41.627Z,125
2018-03-11T10:33:41.091Z,115
2018-03-11T10:34:41.866Z,115
2018-03-11T10:35:41.585Z,115
2018-03-11T10:36:41.050Z,135
2018-03-11T10:37:41.044Z,160
2018-03-11T10:38:41.555Z,210
2018-03-11T10:39:41.806Z,225
2018-03-11T10:40:41.808Z,200
2018-03-11T10:41:41.256Z,165
2018-03-11T10:42:41.242Z,210
2018-03-11T10:43:40.699Z,235
2018-03-11T10:44:41.767Z,270
2018-03-11T10:45:40.939Z,265
2018-03-11T10:46:41.728Z,250
2018-03-11T10:47:41.190Z,240
2018-03-11T10:48:41.175Z,220
2018-03-11T10:49:40.892Z,195
2018-03-11T10:50:41.145Z,185
2018-03-11T10:51:41.143Z,200
2018-03-11T10:52:41.390Z,230
2018-03-11T10:53:41.644Z,255
2018-03-11T10:54:41.421Z,255
2018-03-11T10:55:41.143Z,250
2018-03-11T10:56:41.074Z,260
2018-03-11T10:57:41.075Z,285
2018-03-11T10:58:41.316Z,305
2018-03-11T10:59:41.308Z,315
2018-03-11T11:00:41.295Z,320
2018-03-11T11:01:40.750Z,315
2018-03-11T11:02:41.533Z,285
2018-03-11T11:03:40.735Z,245
2018-03-11T11:04:40.457Z,210
2018-03-11T11:05:40.982Z,180
2018-03-11T11:06:41.225Z,160
2018-03-11T11:07:40.685Z,155
2018-03-11T11:08:40.947Z,155
2018-03-11T11:09:41.199Z,160
2018-03-11T11:10:41.184Z,165
2018-03-11T11:11:40.916Z,165
2018-03-11T11:12:40.679Z,160
2018-03-11T11:13:40.900Z,160
2018-03-11T11:14:41.136Z,160
2018-03-11T11:15:41.405Z,160
2018-03-11T11:16:40.600Z,160
2018-03-11T11:17:41.384Z,150
2018-03-11T11:18:40.840Z,150
2018-03-11T11:19:41.349Z,150
2018-03-11T11:20:40.544Z,160
2018-03-11T11:21:40.804Z,170
2018-03-11T11:22:41.055Z,190
2018-03-11T11:23:40.771Z,210
2018-03-11T11:24:40.500Z,235
2018-03-11T11:25:41.180Z,265
2018-03-11T11:26:40.475Z,280
2018-03-11T11:27:40.728Z,295
2018-03-11T11:28:40.981Z,295
2018-03-11T11:29:40.966Z,300
2018-03-11T11:30:40.703Z,305
2018-03-11T11:31:40.696Z,310
2018-03-11T11:32:40.666Z,325
2018-03-11T11:33:40.665Z,345
2018-03-11T11:34:40.919Z,365
2018-03-11T11:35:40.635Z,390
2018-03-11T11:36:40.411Z,420
2018-03-11T11:37:40.360Z,430
2018-03-11T11:38:40.867Z,425
2018-03-11T11:39:40.602Z,405
2018-03-11T11:40:40.329Z,370
2018-03-11T11:41:40.852Z,350
2018-03-11T11:42:40.301Z,365
2018-03-11T11:43:41.095Z,320
2018-03-11T11:44:40.298Z,275
2018-03-11T11:45:40.797Z,240
2018-03-11T11:46:40.803Z,235
2018-03-11T11:47:40.519Z,210
2018-03-11T11:48:41.184Z,180
2018-03-11T11:49:40.770Z,200
2018-03-11T11:50:41.129Z,190
2018-03-11T11:51:40.806Z,140
2018-03-11T11:52:40.767Z,115
2018-03-11T11:53:40.727Z,95
2018-03-11T11:54:40.712Z,85
2018-03-11T11:55:40.760Z,90
2018-03-11T11:56:39.920Z,90
2018-03-11T11:57:40.962Z,85
2018-03-11T11:58:40.644Z,95
2018-03-11T11:59:40.687Z,150
2018-03-11T12:00:40.206Z,135
2018-03-11T12:01:40.429Z,115
2018-03-11T12:02:40.364Z,135
2018-03-11T12:03:40.095Z,165
2018-03-11T12:04:40.067Z,200
2018-03-11T12:05:40.584Z,210
2018-03-11T12:06:40.312Z,215
2018-03-11T12:07:40.577Z,240
2018-03-11T12:08:40.294Z,240
2018-03-11T12:09:40.010Z,225
2018-03-11T12:10:40.279Z,210
2018-03-11T12:11:40.253Z,175
2018-03-11T12:12:40.539Z,160
2018-03-11T12:13:39.970Z,125
2018-03-11T12:14:40.751Z,110
2018-03-11T12:15:40.205Z,100
2018-03-11T12:16:40.194Z,95
2018-03-11T12:17:40.173Z,110
2018-03-11T12:18:40.199Z,105
2018-03-11T12:19:40.152Z,80
2018-03-11T12:20:39.880Z,75
2018-03-11T12:21:40.161Z,80
2018-03-11T12:22:40.804Z,80
2018-03-11T12:23:40.386Z,80
2018-03-11T12:24:40.102Z,75
2018-03-11T12:25:39.553Z,75
2018-03-11T12:26:39.804Z,70
2018-03-11T12:27:40.610Z,75
2018-03-11T12:28:40.337Z,80
2018-03-11T12:29:40.312Z,95
2018-03-11T12:30:40.298Z,100
2018-03-11T12:31:40.293Z,120
2018-03-11T12:32:39.746Z,140
2018-03-11T12:33:40.533Z,140
2018-03-11T12:34:40.370Z,145
2018-03-11T12:35:40.250Z,150
2018-03-11T12:36:39.705Z,155
2018-03-11T12:37:40.207Z,155
2018-03-11T12:38:39.684Z,145
2018-03-11T12:39:40.206Z,145
2018-03-11T12:40:40.206Z,140
2018-03-11T12:41:39.378Z,140
2018-03-11T12:42:40.452Z,140
2018-03-11T12:43:39.878Z,145
2018-03-11T12:44:40.140Z,140
2018-03-11T12:45:40.119Z,145
2018-03-11T12:46:40.122Z,150
2018-03-11T12:47:40.366Z,160
2018-03-11T12:48:40.105Z,170
2018-03-11T12:49:40.069Z,175
2018-03-11T12:50:39.799Z,185
2018-03-11T12:51:39.780Z,190
2018-03-11T12:52:40.379Z,200
2018-03-11T12:53:40.018Z,205
2018-03-11T12:54:40.004Z,215
2018-03-11T12:55:40.258Z,225
2018-03-11T12:56:40.280Z,235
2018-03-11T12:57:39.716Z,245
2018-03-11T12:58:39.167Z,245
2018-03-11T12:59:39.683Z,255
2018-03-11T13:00:39.666Z,265
2018-03-11T13:01:39.928Z,275
2018-03-11T13:02:39.391Z,280
2018-03-11T13:03:39.369Z,285
2018-03-11T13:04:39.619Z,285
2018-03-11T13:05:40.156Z,280
2018-03-11T13:06:39.328Z,290
2018-03-11T13:07:39.326Z,285
2018-03-11T13:08:39.581Z,285
2018-03-11T13:09:40.105Z,290
2018-03-11T13:10:39.551Z,300
2018-03-11T13:11:39.894Z,320
2018-03-11T13:12:40.061Z,315
2018-03-11T13:13:39.308Z,310
2018-03-11T13:14:39.511Z,300
2018-03-11T13:15:40.027Z,305
2018-03-11T13:16:39.223Z,305
2018-03-11T13:17:39.471Z,300
2018-03-11T13:18:39.467Z,315
2018-03-11T13:19:39.509Z,295
2018-03-11T13:20:39.184Z,285
2018-03-11T13:21:39.437Z,275
2018-03-11T13:22:39.206Z,265
2018-03-11T13:23:39.972Z,255
2018-03-11T13:24:39.937Z,250
2018-03-11T13:25:39.426Z,245
2018-03-11T13:26:39.402Z,245
2018-03-11T13:27:39.644Z,240
2018-03-11T13:28:39.104Z,230
2018-03-11T13:29:39.627Z,225
2018-03-11T13:30:39.077Z,220
2018-03-11T13:31:38.801Z,220
2018-03-11T13:32:39.342Z,220
2018-03-11T13:33:39.313Z,220
2018-03-11T13:34:39.084Z,215
2018-03-11T13:35:39.557Z,220
2018-03-11T13:36:39.544Z,225
2018-03-11T13:37:39.534Z,230
2018-03-11T13:38:39.327Z,245
2018-03-11T13:39:38.980Z,240
2018-03-11T13:40:38.977Z,245
2018-03-11T13:41:38.896Z,235
2018-03-11T13:42:39.481Z,235
2018-03-11T13:43:39.198Z,235
2018-03-11T13:44:39.199Z,240
2018-03-11T13:45:39.194Z,225
2018-03-11T13:46:39.175Z,220
2018-03-11T13:47:39.475Z,215
2018-03-11T13:48:39.410Z,250
2018-03-11T13:49:39.145Z,260
2018-03-11T13:50:39.124Z,270
2018-03-11T13:51:38.846Z,265
2018-03-11T13:52:39.112Z,245
2018-03-11T13:53:38.833Z,235
2018-03-11T13:54:38.818Z,230
2018-03-11T13:55:39.467Z,250
2018-03-11T13:56:39.064Z,260
2018-03-11T13:57:38.789Z,255
2018-03-11T13:58:38.781Z,250
2018-03-11T13:59:39.048Z,245
2018-03-11T14:00:39.032Z,240
2018-03-11T14:01:39.282Z,230
2018-03-11T14:02:39.096Z,220
2018-03-11T14:03:39.259Z,205
2018-03-11T14:04:38.904Z,205
2018-03-11T14:05:38.968Z,210
2018-03-11T14:06:39.054Z,195
2018-03-11T14:07:39.209Z,185
2018-03-11T14:08:38.989Z,175
2018-03-11T14:09:39.466Z,165
2018-03-11T14:10:38.922Z,160
2018-03-11T14:11:39.226Z,155
2018-03-11T14:12:39.177Z,150
2018-03-11T14:13:39.146Z,145
2018-03-11T14:14:39.405Z,140
2018-03-11T14:15:38.864Z,135
2018-03-11T14:16:39.380Z,135